createdAt,value
2022-12-01T00:01:44.703Z,7.60
2022-12-01T00:04:13.646Z,7.85
2022-12-01T00:06:42.496Z,7.86
2022-12-01T00:09:28.936Z,7.85
2022-12-01T00:11:57.882Z,7.25
2022-12-01T00:14:26.772Z,7.28
2022-12-01T00:16:57.116Z,7.07
2022-12-01T00:19:26.475Z,6.96
2022-12-01T00:21:55.517Z,6.96
2022-12-01T00:24:25.401Z,7.49
2022-12-01T00:26:54.214Z,7.74
2022-12-01T00:29:23.076Z,7.79
2022-12-01T00:31:51.950Z,7.79
2022-12-01T00:34:25.207Z,7.78
2022-12-01T00:36:54.057Z,7.43
2022-12-01T00:39:22.909Z,7.32
2022-12-01T00:41:51.804Z,7.35
2022-12-01T00:44:20.708Z,6.95
2022-12-01T00:46:49.709Z,7.22
2022-12-01T00:49:18.762Z,7.26
2022-12-01T00:51:49.097Z,7.42
2022-12-01T00:54:17.964Z,7.63
2022-12-01T00:56:46.827Z,7.52
2022-12-01T00:59:15.751Z,7.21
2022-12-01T01:01:44.643Z,7.22
2022-12-01T01:04:13.517Z,7.18
2022-12-01T01:06:43.412Z,7.26
2022-12-01T01:09:15.466Z,7.51
2022-12-01T01:11:44.606Z,7.78
2022-12-01T01:14:13.492Z,7.91
2022-12-01T01:16:42.580Z,7.68
2022-12-01T01:19:11.636Z,7.79
2022-12-01T01:21:40.774Z,7.85
2022-12-01T01:24:09.879Z,7.70
2022-12-01T01:26:40.203Z,7.49
2022-12-01T01:29:09.207Z,7.42
2022-12-01T01:31:38.102Z,6.94
2022-12-01T01:34:06.982Z,7.17
2022-12-01T01:36:35.913Z,7.00
2022-12-01T01:39:04.961Z,7.20
2022-12-01T01:41:34.452Z,7.02
2022-12-01T01:44:05.680Z,7.36
2022-12-01T01:46:36.803Z,7.12
2022-12-01T01:49:08.119Z,7.32
2022-12-01T01:51:41.430Z,7.09
2022-12-01T01:54:15.726Z,6.93
2022-12-01T01:56:45.675Z,7.06
2022-12-01T01:59:20.180Z,6.84
2022-12-01T02:01:58.250Z,6.73
2022-12-01T02:04:28.836Z,6.49
2022-12-01T02:06:57.668Z,6.54
2022-12-01T02:09:26.625Z,6.73
2022-12-01T02:12:12.448Z,6.62
2022-12-01T02:14:58.355Z,6.73
2022-12-01T02:17:38.812Z,7.02
2022-12-01T02:20:33.659Z,7.07
2022-12-01T02:23:26.653Z,6.99
2022-12-01T02:26:15.049Z,6.62
2022-12-01T02:29:00.231Z,6.63
2022-12-01T02:31:37.973Z,6.56
2022-12-01T02:34:15.090Z,6.89
2022-12-01T02:36:50.385Z,6.65
2022-12-01T02:39:25.324Z,7.15
2022-12-01T02:41:56.170Z,7.21
2022-12-01T02:44:32.223Z,7.23
2022-12-01T02:47:10.859Z,6.90
2022-12-01T02:49:46.436Z,6.94
2022-12-01T02:52:17.129Z,7.05
2022-12-01T02:54:48.477Z,7.43
2022-12-01T02:57:17.995Z,7.29
2022-12-01T02:59:52.116Z,7.46
2022-12-01T03:02:33.086Z,7.24
2022-12-01T03:05:08.374Z,7.11
2022-12-01T03:07:48.371Z,7.10
2022-12-01T03:10:24.106Z,6.48
2022-12-01T03:13:08.906Z,6.32
2022-12-01T03:15:43.455Z,6.45
2022-12-01T03:18:24.596Z,6.37
2022-12-01T03:21:00.448Z,6.43
2022-12-01T03:23:33.246Z,6.60
2022-12-01T03:26:07.107Z,6.48
2022-12-01T03:28:41.031Z,6.55
2022-12-01T03:31:14.643Z,6.66
2022-12-01T03:33:51.171Z,6.62
2022-12-01T03:36:26.575Z,6.44
2022-12-01T03:39:01.331Z,6.52
2022-12-01T03:41:36.465Z,6.67
2022-12-01T03:44:09.765Z,6.90
2022-12-01T03:46:45.486Z,7.02
2022-12-01T03:49:18.271Z,7.12
2022-12-01T03:51:56.786Z,7.49
2022-12-01T03:54:34.673Z,7.42
2022-12-01T03:57:07.447Z,7.26
2022-12-01T03:59:38.159Z,7.26
2022-12-01T04:02:07.722Z,7.25
2022-12-01T04:04:38.352Z,7.06
2022-12-01T04:07:07.327Z,7.13
2022-12-01T04:09:36.207Z,7.40
2022-12-01T04:12:22.542Z,7.31
2022-12-01T04:14:51.481Z,7.29
2022-12-01T04:17:20.454Z,6.95
2022-12-01T04:19:51.243Z,6.39
2022-12-01T04:22:20.600Z,6.80
2022-12-01T04:24:49.526Z,6.47
2022-12-01T04:27:18.500Z,6.90
2022-12-01T04:29:48.076Z,7.12
2022-12-01T04:32:17.438Z,7.27
2022-12-01T04:34:46.389Z,7.43
2022-12-01T04:37:18.158Z,7.43
2022-12-01T04:39:47.423Z,7.20
2022-12-01T04:42:16.648Z,6.49
2022-12-01T04:44:45.497Z,6.97
2022-12-01T04:47:14.443Z,6.39
2022-12-01T04:49:43.313Z,6.54
2022-12-01T04:52:13.358Z,6.56
2022-12-01T04:54:43.650Z,6.80
2022-12-01T04:57:12.586Z,6.94
2022-12-01T04:59:41.489Z,6.85
2022-12-01T05:02:10.369Z,7.19
2022-12-01T05:04:41.575Z,7.37
2022-12-01T05:07:10.506Z,7.27
2022-12-01T05:09:39.457Z,7.29
2022-12-01T05:12:09.730Z,7.64
2022-12-01T05:14:38.584Z,7.54
2022-12-01T05:17:07.402Z,7.22
2022-12-01T05:19:53.834Z,6.94
2022-12-01T05:22:42.601Z,7.21
2022-12-01T05:25:11.536Z,7.57
2022-12-01T05:27:41.823Z,6.79
2022-12-01T05:30:12.609Z,6.94
2022-12-01T05:32:41.515Z,7.19
2022-12-01T05:35:10.754Z,7.04
2022-12-01T05:37:39.610Z,6.94
2022-12-01T05:40:09.751Z,6.81
2022-12-01T05:42:38.648Z,6.80
2022-12-01T05:45:09.840Z,6.74
2022-12-01T05:47:38.744Z,7.02
2022-12-01T05:50:09.123Z,6.73
2022-12-01T05:52:38.166Z,6.60
2022-12-01T05:55:08.098Z,6.54
2022-12-01T05:57:37.034Z,6.84
2022-12-01T06:00:09.326Z,6.81
2022-12-01T06:02:41.330Z,6.72
2022-12-01T06:05:11.083Z,6.57
2022-12-01T06:07:40.750Z,6.45
2022-12-01T06:10:10.801Z,6.45
2022-12-01T06:12:40.278Z,6.86
2022-12-01T06:15:12.925Z,6.87
2022-12-01T06:17:41.804Z,6.74
2022-12-01T06:20:12.306Z,6.85
2022-12-01T06:22:41.316Z,6.99
2022-12-01T06:25:11.651Z,6.96
2022-12-01T06:27:40.497Z,6.62
2022-12-01T06:30:11.650Z,6.78
2022-12-01T06:32:40.611Z,6.77
2022-12-01T06:35:10.062Z,6.76
2022-12-01T06:37:38.930Z,6.99
2022-12-01T06:40:09.100Z,6.65
2022-12-01T06:42:37.976Z,6.58
2022-12-01T06:45:07.789Z,6.59
2022-12-01T06:47:38.165Z,6.62
2022-12-01T06:50:10.051Z,6.57
2022-12-01T06:52:39.178Z,6.39
2022-12-01T06:55:08.701Z,6.55
2022-12-01T06:57:37.837Z,6.39
2022-12-01T07:00:09.026Z,6.39
2022-12-01T07:02:40.296Z,6.44
2022-12-01T07:05:09.908Z,6.55
2022-12-01T07:07:39.832Z,6.43
2022-12-01T07:10:10.501Z,6.47
2022-12-01T07:12:39.541Z,6.14
2022-12-01T07:15:10.347Z,6.14
2022-12-01T07:17:40.619Z,6.59
2022-12-01T07:20:11.400Z,6.27
2022-12-01T07:22:40.330Z,6.29
2022-12-01T07:25:10.014Z,6.22
2022-12-01T07:27:38.823Z,6.14
2022-12-01T07:30:09.103Z,6.34
2022-12-01T07:32:38.224Z,6.83
2022-12-01T07:35:10.268Z,7.07
2022-12-01T07:37:39.147Z,6.44
2022-12-01T07:40:10.406Z,6.15
2022-12-01T07:42:42.178Z,6.13
2022-12-01T07:45:11.472Z,5.91
2022-12-01T07:47:40.448Z,6.47
2022-12-01T07:50:11.475Z,6.52
2022-12-01T07:52:40.765Z,6.44
2022-12-01T07:55:09.968Z,6.79
2022-12-01T07:57:38.853Z,6.48
2022-12-01T08:00:09.107Z,6.66
2022-12-01T08:02:40.973Z,6.71
2022-12-01T08:05:11.583Z,6.88
2022-12-01T08:07:40.481Z,6.80
2022-12-01T08:10:09.889Z,6.82
2022-12-01T08:12:38.799Z,6.56
2022-12-01T08:15:08.614Z,6.39
2022-12-01T08:17:37.511Z,6.65
2022-12-01T08:20:08.105Z,6.62
2022-12-01T08:22:38.310Z,6.74
2022-12-01T08:25:08.032Z,6.36
2022-12-01T08:27:37.488Z,6.25
2022-12-01T08:30:07.965Z,6.36
2022-12-01T08:32:36.883Z,5.97
2022-12-01T08:35:06.528Z,6.16
2022-12-01T08:37:35.550Z,6.09
2022-12-01T08:40:07.240Z,6.55
2022-12-01T08:42:36.583Z,6.38
2022-12-01T08:45:06.216Z,6.30
2022-12-01T08:47:35.216Z,5.93
2022-12-01T08:50:05.025Z,5.90
2022-12-01T08:52:34.059Z,6.17
2022-12-01T08:55:03.737Z,6.13
2022-12-01T08:57:34.283Z,6.31
2022-12-01T09:00:04.365Z,6.45
2022-12-01T09:02:33.380Z,6.33
2022-12-01T09:05:02.366Z,6.04
2022-12-01T09:07:31.412Z,6.28
2022-12-01T09:10:00.600Z,6.25
2022-12-01T09:12:30.571Z,6.16
2022-12-01T09:15:00.840Z,6.27
2022-12-01T09:17:30.064Z,6.44
2022-12-01T09:19:58.943Z,6.22
2022-12-01T09:22:27.926Z,6.29
2022-12-01T09:24:56.798Z,6.01
2022-12-01T09:27:25.699Z,6.25
2022-12-01T09:29:54.529Z,6.81
2022-12-01T09:32:24.843Z,6.85
2022-12-01T09:34:53.706Z,6.67
2022-12-01T09:37:22.659Z,6.94
2022-12-01T09:39:51.817Z,7.07
2022-12-01T09:42:30.842Z,6.83
2022-12-01T09:45:05.038Z,7.09
2022-12-01T09:47:36.815Z,6.50
2022-12-01T09:50:08.747Z,6.46
2022-12-01T09:52:43.205Z,6.47
2022-12-01T09:55:14.548Z,6.52
2022-12-01T09:57:49.344Z,6.78
2022-12-01T10:00:21.660Z,6.80
2022-12-01T10:02:55.970Z,6.82
2022-12-01T10:05:30.222Z,6.61
2022-12-01T10:08:03.416Z,7.05
2022-12-01T10:10:38.182Z,7.09
2022-12-01T10:13:17.550Z,7.22
2022-12-01T10:15:53.059Z,7.13
2022-12-01T10:18:36.764Z,6.89
2022-12-01T10:21:15.551Z,7.11
2022-12-01T10:24:08.783Z,7.35
2022-12-01T10:26:50.436Z,7.60
2022-12-01T10:29:29.338Z,7.66
2022-12-01T10:32:02.084Z,7.54
2022-12-01T10:34:36.062Z,7.38
2022-12-01T10:37:05.632Z,6.91
2022-12-01T10:39:39.021Z,6.65
2022-12-01T10:42:13.927Z,6.62
2022-12-01T10:44:44.527Z,6.93
2022-12-01T10:47:20.784Z,6.84
2022-12-01T10:49:51.488Z,6.83
2022-12-01T10:52:36.084Z,6.72
2022-12-01T10:55:17.627Z,6.66
2022-12-01T10:57:46.821Z,6.83
2022-12-01T11:00:57.497Z,6.70
2022-12-01T11:03:22.068Z,6.71
2022-12-01T11:05:58.167Z,6.72
2022-12-01T11:08:34.951Z,6.68
2022-12-01T11:11:05.012Z,6.68
2022-12-01T11:13:36.884Z,6.57
2022-12-01T11:16:08.231Z,6.58
2022-12-01T11:18:39.072Z,6.54
2022-12-01T11:21:13.489Z,6.96
2022-12-01T11:23:46.982Z,6.83
2022-12-01T11:26:20.750Z,6.57
2022-12-01T11:28:56.153Z,6.80
2022-12-01T11:31:38.907Z,6.76
2022-12-01T11:34:19.795Z,6.74
2022-12-01T11:36:52.729Z,6.73
2022-12-01T11:39:29.105Z,6.85
2022-12-01T11:42:00.632Z,6.58
2022-12-01T11:47:23.671Z,6.28
2022-12-01T11:49:55.607Z,6.06
2022-12-01T11:52:29.975Z,6.03
2022-12-01T11:55:08.238Z,5.99
2022-12-01T11:57:42.320Z,5.96
2022-12-01T12:00:15.734Z,6.24
2022-12-01T12:03:05.194Z,6.24
2022-12-01T12:05:45.787Z,5.95
2022-12-01T12:08:27.934Z,6.05
2022-12-01T12:11:07.905Z,6.23
2022-12-01T12:14:14.806Z,6.27
2022-12-01T12:17:00.270Z,6.27
2022-12-01T12:22:55.411Z,6.17
2022-12-01T12:25:38.324Z,6.33
2022-12-01T12:28:27.389Z,5.95
2022-12-01T12:31:07.480Z,6.17
2022-12-01T12:34:05.911Z,5.78
2022-12-01T12:36:44.561Z,5.92
2022-12-01T12:39:30.103Z,6.08
2022-12-01T12:42:04.736Z,5.92
2022-12-01T12:44:48.614Z,5.72
2022-12-01T12:47:39.962Z,5.87
2022-12-01T12:50:24.815Z,6.31
2022-12-01T12:52:59.319Z,5.73
2022-12-01T12:55:31.440Z,6.10
2022-12-01T12:58:11.074Z,5.87
2022-12-01T13:00:45.303Z,5.87
2022-12-01T13:03:20.615Z,5.81
2022-12-01T13:05:53.908Z,5.88
2022-12-01T13:08:26.873Z,5.88
2022-12-01T13:11:02.027Z,6.25
2022-12-01T13:13:38.727Z,5.57
2022-12-01T13:16:14.483Z,6.00
2022-12-01T13:18:47.403Z,5.52
2022-12-01T13:21:20.345Z,5.86
2022-12-01T13:23:52.416Z,6.11
2022-12-01T13:26:23.573Z,6.08
2022-12-01T13:28:56.858Z,6.35
2022-12-01T13:31:26.048Z,6.11
2022-12-01T13:33:57.155Z,6.26
2022-12-01T13:39:21.103Z,5.73
2022-12-01T13:42:02.104Z,5.74
2022-12-01T13:44:41.007Z,5.90
2022-12-01T13:47:32.320Z,5.78
2022-12-01T13:50:34.835Z,5.84
2022-12-01T13:53:13.276Z,5.51
2022-12-01T13:55:58.723Z,5.71
2022-12-01T13:58:43.188Z,5.49
2022-12-01T14:01:47.927Z,5.26
2022-12-01T14:04:31.847Z,5.75
2022-12-01T14:07:36.319Z,5.31
2022-12-01T14:10:15.565Z,5.31
2022-12-01T14:12:47.177Z,5.49
2022-12-01T14:15:29.068Z,5.59
2022-12-01T14:18:06.758Z,5.35
2022-12-01T14:20:45.953Z,5.56
2022-12-01T14:23:25.259Z,5.35
2022-12-01T14:26:06.868Z,5.62
2022-12-01T14:29:21.553Z,5.53
2022-12-01T14:32:22.627Z,5.43
2022-12-01T14:34:59.366Z,5.51
2022-12-01T14:37:37.038Z,5.44
2022-12-01T14:40:12.324Z,5.10
2022-12-01T14:43:01.162Z,5.13
2022-12-01T14:45:50.780Z,5.18
2022-12-01T14:48:25.174Z,5.51
2022-12-01T14:51:09.570Z,5.36
2022-12-01T14:53:44.477Z,5.05
2022-12-01T14:56:15.244Z,5.05
2022-12-01T14:58:53.358Z,5.09
2022-12-01T15:01:23.523Z,5.47
2022-12-01T15:03:55.551Z,5.84
2022-12-01T15:06:28.703Z,6.21
2022-12-01T15:09:32.888Z,5.89
2022-12-01T15:12:00.222Z,5.63
2022-12-01T15:14:35.823Z,5.63
2022-12-01T15:17:06.201Z,5.37
2022-12-01T15:19:38.569Z,5.57
2022-12-01T15:22:14.743Z,5.28
2022-12-01T15:24:44.539Z,5.41
2022-12-01T15:27:29.077Z,5.52
2022-12-01T15:30:03.391Z,5.64
2022-12-01T15:32:37.781Z,5.42
2022-12-01T15:35:15.742Z,5.48
2022-12-01T15:37:46.633Z,5.79
2022-12-01T15:43:17.172Z,5.69
2022-12-01T15:45:57.490Z,5.91
2022-12-01T15:48:30.167Z,5.47
2022-12-01T15:51:10.731Z,5.25
2022-12-01T15:53:47.655Z,5.33
2022-12-01T15:56:17.084Z,5.30
2022-12-01T15:58:48.308Z,4.98
2022-12-01T16:01:19.663Z,4.86
2022-12-01T16:03:53.784Z,5.47
2022-12-01T16:06:26.753Z,5.21
2022-12-01T16:09:00.408Z,5.37
2022-12-01T16:11:30.384Z,5.53
2022-12-01T16:14:02.628Z,5.66
2022-12-01T16:16:37.210Z,5.08
2022-12-01T16:19:24.563Z,5.11
2022-12-01T16:21:56.622Z,5.48
2022-12-01T16:24:31.976Z,5.56
2022-12-01T16:27:03.856Z,5.50
2022-12-01T16:29:44.208Z,5.51
2022-12-01T16:32:21.103Z,5.69
2022-12-01T16:34:53.141Z,5.47
2022-12-01T16:37:22.747Z,5.58
2022-12-01T16:39:53.463Z,5.64
2022-12-01T16:42:23.260Z,5.73
2022-12-01T16:44:53.459Z,5.75
2022-12-01T16:47:24.635Z,5.88
2022-12-01T16:49:54.409Z,5.78
2022-12-01T16:55:30.144Z,5.77
2022-12-01T16:57:59.228Z,5.91
2022-12-01T17:00:29.481Z,5.53
2022-12-01T17:02:59.018Z,5.36
2022-12-01T17:05:28.565Z,5.55
2022-12-01T17:07:57.712Z,5.47
2022-12-01T17:10:28.120Z,5.52
2022-12-01T17:12:57.152Z,5.64
2022-12-01T17:15:26.588Z,5.65
2022-12-01T17:17:55.477Z,5.63
2022-12-01T17:20:24.586Z,5.45
2022-12-01T17:22:53.954Z,5.50
2022-12-01T17:25:22.836Z,5.11
2022-12-01T17:27:54.723Z,4.84
2022-12-01T17:30:24.306Z,4.58
2022-12-01T17:32:53.350Z,4.67
2022-12-01T17:35:22.518Z,4.77
2022-12-01T17:37:51.517Z,4.81
2022-12-01T17:40:20.724Z,4.58
2022-12-01T17:42:51.102Z,4.96
2022-12-01T17:45:21.521Z,4.62
2022-12-01T17:47:50.835Z,5.08
2022-12-01T17:50:19.772Z,5.04
2022-12-01T17:52:48.610Z,4.74
2022-12-01T17:55:17.734Z,4.73
2022-12-01T17:57:46.604Z,5.30
2022-12-01T18:00:16.784Z,5.23
2022-12-01T18:02:47.772Z,5.40
2022-12-01T18:05:16.962Z,5.38
2022-12-01T18:07:45.964Z,5.54
2022-12-01T18:10:14.877Z,5.29
2022-12-01T18:12:44.005Z,4.89
2022-12-01T18:15:13.403Z,4.97
2022-12-01T18:17:42.275Z,5.46
2022-12-01T18:20:13.318Z,5.11
2022-12-01T18:22:42.766Z,5.14
2022-12-01T18:25:11.666Z,5.24
2022-12-01T18:27:42.812Z,5.51
2022-12-01T18:30:13.701Z,5.65
2022-12-01T18:32:42.612Z,5.71
2022-12-01T18:35:12.920Z,5.42
2022-12-01T18:37:41.845Z,5.80
2022-12-01T18:40:12.261Z,5.79
2022-12-01T18:42:41.197Z,5.23
2022-12-01T18:45:10.672Z,5.27
2022-12-01T18:47:39.521Z,5.17
2022-12-01T18:50:09.532Z,5.33
2022-12-01T18:52:39.887Z,4.81
2022-12-01T18:55:09.360Z,4.86
2022-12-01T18:57:38.286Z,4.60
2022-12-01T19:00:08.630Z,4.80
2022-12-01T19:02:37.689Z,5.20
2022-12-01T19:05:07.720Z,5.15
2022-12-01T19:07:37.031Z,5.50
2022-12-01T19:10:09.457Z,5.78
2022-12-01T19:12:41.156Z,5.29
2022-12-01T19:15:11.714Z,5.25
2022-12-01T19:17:40.857Z,5.29
2022-12-01T19:20:11.551Z,5.33
2022-12-01T19:22:40.756Z,5.47
2022-12-01T19:25:13.476Z,5.51
2022-12-01T19:27:43.338Z,4.97
2022-12-01T19:30:13.824Z,4.75
2022-12-01T19:32:44.413Z,5.04
2022-12-01T19:35:13.521Z,4.67
2022-12-01T19:37:42.786Z,4.97
2022-12-01T19:40:14.910Z,4.79
2022-12-01T19:42:44.123Z,4.96
2022-12-01T19:45:13.343Z,4.85
2022-12-01T19:47:42.446Z,4.55
2022-12-01T19:50:12.002Z,4.34
2022-12-01T19:52:41.574Z,4.52
2022-12-01T19:55:13.296Z,4.48
2022-12-01T19:57:42.352Z,5.01
2022-12-01T20:00:12.664Z,5.13
2022-12-01T20:02:42.981Z,5.42
2022-12-01T20:05:11.975Z,5.15
2022-12-01T20:07:41.100Z,4.85
2022-12-01T20:10:11.138Z,4.96
2022-12-01T20:12:41.936Z,5.17
2022-12-01T20:15:12.137Z,5.40
2022-12-01T20:17:41.499Z,4.92
2022-12-01T20:20:12.573Z,5.08
2022-12-01T20:22:41.912Z,5.33
2022-12-01T20:25:11.080Z,5.09
2022-12-01T20:27:42.691Z,5.24
2022-12-01T20:30:13.337Z,5.36
2022-12-01T20:32:42.802Z,5.37
2022-12-01T20:35:13.605Z,5.40
2022-12-01T20:37:43.395Z,5.44
2022-12-01T20:40:13.487Z,5.72
2022-12-01T20:42:44.063Z,5.56
2022-12-01T20:45:13.153Z,5.87
2022-12-01T20:47:42.403Z,6.18
2022-12-01T20:50:11.861Z,5.89
2022-12-01T20:52:42.090Z,5.99
2022-12-01T20:55:11.361Z,6.11
2022-12-01T20:57:40.550Z,5.79
2022-12-01T21:00:13.683Z,5.69
2022-12-01T21:02:43.719Z,5.55
2022-12-01T21:05:13.168Z,5.87
2022-12-01T21:07:42.188Z,5.91
2022-12-01T21:10:15.687Z,5.80
2022-12-01T21:13:08.476Z,5.74
2022-12-01T21:15:50.272Z,5.53
2022-12-01T21:18:23.296Z,5.29
2022-12-01T21:20:56.383Z,5.37
2022-12-01T21:23:28.189Z,5.64
2022-12-01T21:25:57.361Z,5.76
2022-12-01T21:28:27.623Z,5.83
2022-12-01T21:31:03.623Z,5.66
2022-12-01T21:33:33.857Z,5.74
2022-12-01T21:36:03.857Z,5.68
2022-12-01T21:38:33.289Z,5.61
2022-12-01T21:41:02.508Z,5.14
2022-12-01T21:43:36.676Z,4.64
2022-12-01T21:46:15.196Z,4.84
2022-12-01T21:48:46.121Z,4.15
2022-12-01T21:51:20.162Z,4.09
2022-12-01T21:53:49.476Z,4.09
2022-12-01T21:56:28.747Z,4.01
2022-12-01T21:59:00.362Z,4.22
2022-12-01T22:01:32.684Z,4.08
2022-12-01T22:04:03.368Z,4.11
2022-12-01T22:06:38.468Z,4.14
2022-12-01T22:09:15.462Z,4.27
2022-12-01T22:11:46.142Z,4.84
2022-12-01T22:14:17.909Z,4.81
2022-12-01T22:16:52.727Z,4.50
2022-12-01T22:19:31.042Z,4.63
2022-12-01T22:22:15.752Z,4.57
2022-12-01T22:24:47.123Z,4.88
2022-12-01T22:27:31.076Z,4.71
2022-12-01T22:30:02.970Z,5.07
2022-12-01T22:32:53.365Z,4.97
2022-12-01T22:35:26.190Z,4.60
2022-12-01T22:37:59.443Z,4.90
2022-12-01T22:40:44.667Z,5.27
2022-12-01T22:43:31.305Z,5.13
2022-12-01T22:46:16.574Z,5.14
2022-12-01T22:48:47.858Z,5.42
2022-12-01T22:51:31.513Z,5.55
2022-12-01T22:54:07.383Z,5.68
2022-12-01T22:56:40.541Z,5.77
2022-12-01T22:59:16.555Z,5.18
2022-12-01T23:01:50.758Z,5.51
2022-12-01T23:04:27.768Z,5.79
2022-12-01T23:07:11.227Z,5.45
2022-12-01T23:09:43.375Z,5.30
2022-12-01T23:12:27.455Z,5.43
2022-12-01T23:15:00.223Z,5.36
2022-12-01T23:17:32.459Z,5.44
2022-12-01T23:20:25.800Z,5.79
2022-12-01T23:22:55.911Z,5.90
2022-12-01T23:25:27.356Z,5.69
2022-12-01T23:28:01.042Z,5.38
2022-12-01T23:30:30.128Z,5.38
2022-12-01T23:33:07.882Z,5.50
2022-12-01T23:35:42.543Z,5.12
2022-12-01T23:38:16.934Z,5.40
2022-12-01T23:40:46.827Z,5.20
2022-12-01T23:43:21.282Z,4.86
2022-12-01T23:45:56.754Z,4.89
2022-12-01T23:48:33.831Z,5.01
2022-12-01T23:51:04.161Z,4.82
2022-12-01T23:53:34.337Z,5.06
2022-12-01T23:56:08.211Z,5.10
2022-12-01T23:58:37.399Z,5.14
